Detall de PIREP

Printer-friendly versionPDF version

[2014/09/30 09:34:00]
Flight IATA:CT3110
Pilot Number:012
Company ICAO:CAT
Aircraft Type:B763/F
PAX:263
Departing Airport: LEBL
Destination Airport: LEPA
Alternate Airport:LEBL
Online: VATSIM
Route:LARPA B31 TOLSO
Flight Level:F170
No Slew and time accel
No pause
Crash detect
Detect pilot in Cockpit between each 30 and 45 minutes
09:34 Zero fuel Weight: 249895 Lbs, Fuel Weight: 20302 Lbs
09:34 VATSIM:LEBL 300900Z 32003KT 210V010 7000 -RA FEW014 FEW030TCU BKN045 20/18 Q1024 NOSIG
09:34 VATSIM:LEPA 300900Z 00000KT 9999 FEW020 FEW030TCU 24/20 Q1023 NOSIG
09:34 FC BARCELONA CHAMPIONS
09:35 Parking Brakes off
09:42 Take-off
09:42 Take off Weight: 268593 Lbs
09:42 Wind: 295º @ 004 Knots Heading: 245º
09:42 POS N41º 17´ 14´´ E002º 05´ 20´´
09:42 Gear Up: 169 Knots
09:42 Flaps:1 at 170 Knots
09:43 Flaps:0 at 189 Knots
09:48 TOC
09:48 Fuel Weight: 15655 Lb
09:52 TOD
09:52 Fuel Weight: 14855 Lb
09:57 Wind:237º@011 Knots Heading: 122º Ground Speed: 303 Knots Altitude 10669 ft
10:02 Flaps:1 at 237 Knots
10:03 Flaps:2 at 222 Knots
10:04 Flaps:3 at 184 Knots
10:05 Flaps:4 at 168 Knots
10:05 Gear Down: 168 Knots
10:06 Flaps:5 at 143 Knots
10:06 Flaps:6 at 140 Knots
10:10 TouchDown:Rate -257 ft/min Speed: 122 Knots
10:10 VATSIM:LEPA 301000Z 20004KT 160V250 9999 FEW018 FEW025TCU 25/20 Q1023 NOSIG
10:10 Land
10:10 Wind:355º@001 Knots
10:10 Heading: 236º
10:10 Flight Duration: 00:28
10:10 Landing Weight: 262485 Lbs
10:10 POS N39º 32´ 52´´ E002º 44´ 44´´
10:13 Parking brakes on
10:13 Block to Block Duration: 00:38
10:13 Final Fuel: 12193 Lbls
10:13 Spent Fuel: 8108 Lbls
10:13 Flight Length: 134 NM
10:13 TOD Land Length: 75 NM

Exportar CSV

Powered by Drupal - Modified by Danger4k